Time;durP1;ratioP1;P1;durP2;ratioP2;P2;SDS_P1;SDS_P2;PMS_P1;PMS_P2;Temp;Humidity;BMP_temperature;BMP_pressure;BME280_temperature;BME280_humidity;BME280_pressure;Samples;Min_cycle;Max_cycle;Signal;HPM_P1;HPM_P2
2021/06/08 00:00:47;;;;;;;34.37;23.53;;;;;;;-139.38;100.00;63230.50;5067515;28;20684;-68
2021/06/08 00:04:12;;;;;;;35.63;22.67;;;;;;;-139.38;100.00;63230.50;5069242;28;20247;-68
2021/06/08 00:07:37;;;;;;;32.93;22.33;;;;;;;-139.38;100.00;63230.50;5066707;28;20222;-67
2021/06/08 00:11:05;;;;;;;32.67;22.40;;;;;;;-139.38;100.00;63230.50;5067603;28;20205;-68
2021/06/08 00:14:30;;;;;;;35.70;23.97;;;;;;;-139.38;100.00;63230.50;5068780;28;20238;-68
2021/06/08 00:17:56;;;;;;;35.43;22.90;;;;;;;-139.38;100.00;63230.50;5070111;28;20220;-68
2021/06/08 00:21:21;;;;;;;32.67;21.57;;;;;;;-139.38;100.00;63230.50;5067005;28;20234;-68
2021/06/08 00:24:47;;;;;;;32.93;22.40;;;;;;;-139.38;100.00;63230.50;5065171;28;20244;-68
2021/06/08 00:28:13;;;;;;;33.47;22.90;;;;;;;-139.38;100.00;63230.50;5067935;28;20224;-68
2021/06/08 00:31:38;;;;;;;31.63;21.80;;;;;;;-139.38;100.00;63230.50;5068635;28;20210;-68
2021/06/08 00:35:04;;;;;;;31.30;21.03;;;;;;;-139.38;100.00;63230.50;5069336;28;20245;-68
2021/06/08 00:38:29;;;;;;;31.20;21.17;;;;;;;-139.38;100.00;63230.50;5063380;28;20203;-68
2021/06/08 00:41:55;;;;;;;33.80;22.30;;;;;;;-139.38;100.00;63230.50;5068992;28;20207;-68
2021/06/08 00:45:22;;;;;;;32.40;21.83;;;;;;;-139.38;100.00;63230.50;5068465;28;20215;-69
2021/06/08 00:48:47;;;;;;;28.43;20.50;;;;;;;-139.38;100.00;63230.50;5069982;28;20699;-66
2021/06/08 00:52:12;;;;;;;32.77;20.83;;;;;;;-139.38;100.00;63230.50;5065695;28;20242;-66
2021/06/08 00:55:38;;;;;;;30.13;21.43;;;;;;;-139.38;100.00;63230.50;5068798;28;20211;-67
2021/06/08 00:59:03;;;;;;;32.43;21.30;;;;;;;-139.38;100.00;63230.50;5066674;28;20207;-67
2021/06/08 01:02:30;;;;;;;26.47;20.17;;;;;;;-139.38;100.00;63230.50;5069569;28;20218;-68
2021/06/08 01:05:55;;;;;;;32.37;20.33;;;;;;;-139.38;100.00;63230.50;5064358;28;20213;-67
2021/06/08 01:09:21;;;;;;;30.30;21.03;;;;;;;-139.38;100.00;63230.50;5064213;28;20202;-67
2021/06/08 01:12:46;;;;;;;30.20;20.83;;;;;;;-139.38;100.00;63230.50;5069318;28;20212;-67
2021/06/08 01:16:11;;;;;;;27.70;19.77;;;;;;;-139.38;100.00;63230.50;5067291;28;20215;-67
2021/06/08 01:19:38;;;;;;;29.20;21.17;;;;;;;-139.38;100.00;63230.50;5069248;28;20197;-67
2021/06/08 01:23:05;;;;;;;32.93;21.90;;;;;;;-139.38;100.00;63230.50;5069658;28;20203;-68
2021/06/08 01:26:31;;;;;;;32.43;22.27;;;;;;;-139.38;100.00;63230.50;5068719;28;20680;-67
2021/06/08 01:29:56;;;;;;;33.93;22.53;;;;;;;-139.38;100.00;63230.50;5065392;28;20208;-67
2021/06/08 01:33:23;;;;;;;36.03;23.27;;;;;;;-139.38;100.00;63230.50;5060453;28;20232;-67
2021/06/08 01:36:49;;;;;;;36.80;23.37;;;;;;;-139.38;100.00;63230.50;5065752;28;20217;-67
2021/06/08 01:40:17;;;;;;;32.63;22.27;;;;;;;-139.38;100.00;63230.50;5066193;28;20211;-67
2021/06/08 01:43:42;;;;;;;36.73;24.93;;;;;;;-139.38;100.00;63230.50;5063998;28;20294;-67
2021/06/08 01:47:08;;;;;;;36.83;24.47;;;;;;;-139.38;100.00;63230.50;5070204;28;20253;-67
2021/06/08 01:50:33;;;;;;;35.63;22.93;;;;;;;-139.38;100.00;63230.50;5071713;28;20207;-67
2021/06/08 01:54:09;;;;;;;34.53;23.07;;;;;;;-139.38;100.00;63230.50;5067630;28;20231;-67
2021/06/08 01:57:38;;;;;;;34.63;23.43;;;;;;;-139.38;100.00;63230.50;5066815;28;20200;-67
2021/06/08 02:01:07;;;;;;;35.07;23.10;;;;;;;-139.38;100.00;63230.50;5070243;28;20206;-67
2021/06/08 02:04:34;;;;;;;34.57;23.83;;;;;;;-139.38;100.00;63230.50;5067265;28;20217;-67
2021/06/08 02:08:08;;;;;;;33.43;23.70;;;;;;;-139.38;100.00;63230.50;5069135;28;20231;-67
2021/06/08 02:11:51;;;;;;;38.70;25.07;;;;;;;-139.38;100.00;63230.50;5070172;28;20206;-67
2021/06/08 02:15:21;;;;;;;37.60;24.57;;;;;;;-139.38;100.00;63230.50;5072040;28;20203;-67
2021/06/08 02:18:50;;;;;;;40.10;24.90;;;;;;;-139.38;100.00;63230.50;5072269;28;20200;-68
2021/06/08 02:22:17;;;;;;;36.37;24.07;;;;;;;-139.38;100.00;63230.50;5071280;28;22216;-67
2021/06/08 02:25:43;;;;;;;35.80;25.10;;;;;;;-139.38;100.00;63230.50;5072868;28;20221;-67
2021/06/08 02:29:10;;;;;;;37.47;24.00;;;;;;;-139.38;100.00;63230.50;5061676;28;20261;-67
2021/06/08 02:32:36;;;;;;;35.27;24.60;;;;;;;-139.38;100.00;63230.50;5073352;28;20248;-67
2021/06/08 02:36:02;;;;;;;39.37;25.50;;;;;;;-139.38;100.00;63230.50;5067994;28;20669;-67
2021/06/08 02:39:28;;;;;;;37.20;23.87;;;;;;;-139.38;100.00;63230.50;5065461;28;20204;-67
2021/06/08 02:42:53;;;;;;;32.93;23.50;;;;;;;-139.38;100.00;63230.50;5068824;28;20208;-67
2021/06/08 02:46:22;;;;;;;35.73;24.97;;;;;;;-139.38;100.00;63230.50;5068847;28;20205;-67
2021/06/08 02:49:49;;;;;;;37.13;23.63;;;;;;;-139.38;100.00;63230.50;5072230;28;20245;-67
2021/06/08 02:53:15;;;;;;;40.93;24.87;;;;;;;-139.38;100.00;63230.50;5071832;28;20238;-67
2021/06/08 02:56:41;;;;;;;32.57;23.57;;;;;;;-139.38;100.00;63230.50;5069867;28;20669;-67
2021/06/08 03:00:07;;;;;;;33.53;23.50;;;;;;;-139.38;100.00;63230.50;5071950;28;20203;-67
2021/06/08 03:03:37;;;;;;;35.07;24.00;;;;;;;-139.38;100.00;63230.50;5071652;28;20227;-67
2021/06/08 03:07:03;;;;;;;38.07;22.67;;;;;;;-139.38;100.00;63230.50;5071408;28;20209;-68
2021/06/08 03:10:33;;;;;;;32.07;23.10;;;;;;;-139.38;100.00;63230.50;5072050;28;20209;-67
2021/06/08 03:13:59;;;;;;;34.93;23.43;;;;;;;-139.38;100.00;63230.50;5070170;28;20677;-67
2021/06/08 03:17:28;;;;;;;33.80;23.80;;;;;;;-139.38;100.00;63230.50;5071848;28;20267;-67
2021/06/08 03:20:58;;;;;;;35.33;23.40;;;;;;;-139.38;100.00;63230.50;5071295;28;20216;-67
2021/06/08 03:24:26;;;;;;;33.83;22.80;;;;;;;-139.38;100.00;63230.50;5067828;28;20223;-67
2021/06/08 03:27:52;;;;;;;36.00;25.80;;;;;;;-139.38;100.00;63230.50;5065271;28;20651;-67
2021/06/08 03:31:18;;;;;;;34.03;25.00;;;;;;;-139.38;100.00;63230.50;5070269;28;20207;-67
2021/06/08 03:34:43;;;;;;;35.97;24.00;;;;;;;-139.38;100.00;63230.50;5062233;28;20224;-67
2021/06/08 03:38:11;;;;;;;36.13;24.83;;;;;;;-139.38;100.00;63230.50;5070692;28;20207;-67
2021/06/08 03:41:37;;;;;;;38.50;25.77;;;;;;;-139.38;100.00;63230.50;5071072;28;20577;-67
2021/06/08 03:45:02;;;;;;;37.47;24.63;;;;;;;-139.38;100.00;63230.50;5069530;28;20228;-67
2021/06/08 03:48:28;;;;;;;36.80;25.27;;;;;;;-139.38;100.00;63230.50;5071561;28;20214;-67
2021/06/08 03:51:54;;;;;;;38.47;27.27;;;;;;;-139.38;100.00;63230.50;5065597;28;20204;-67
2021/06/08 03:55:22;;;;;;;38.13;25.10;;;;;;;-139.38;100.00;63230.50;5068184;28;20818;-67
2021/06/08 03:58:47;;;;;;;40.20;26.27;;;;;;;-139.38;100.00;63230.50;5065750;28;20203;-67
2021/06/08 04:02:13;;;;;;;36.17;25.27;;;;;;;-139.38;100.00;63230.50;5064429;28;20629;-67
2021/06/08 04:05:38;;;;;;;41.87;25.57;;;;;;;-139.38;100.00;63230.50;5063698;28;20258;-67
2021/06/08 04:09:05;;;;;;;40.07;25.30;;;;;;;-139.38;100.00;63230.50;5067947;28;20224;-67
2021/06/08 04:12:32;;;;;;;37.63;25.60;;;;;;;-139.38;100.00;63230.50;5070417;28;20289;-68
2021/06/08 04:15:57;;;;;;;36.77;24.50;;;;;;;-139.38;100.00;63230.50;5069685;28;20213;-67
2021/06/08 04:19:22;;;;;;;36.70;24.53;;;;;;;-139.38;100.00;63230.50;5066029;28;20218;-67
2021/06/08 04:22:49;;;;;;;38.97;25.87;;;;;;;-139.38;100.00;63230.50;5067857;28;20204;-67
2021/06/08 04:26:15;;;;;;;39.30;25.03;;;;;;;-139.38;100.00;63230.50;5068541;28;20292;-67
2021/06/08 04:29:42;;;;;;;33.73;24.27;;;;;;;-139.38;100.00;63230.50;5068771;28;20220;-67
2021/06/08 04:33:07;;;;;;;38.23;24.37;;;;;;;-139.38;100.00;63230.50;5068743;28;20200;-67
2021/06/08 04:36:33;;;;;;;36.83;24.57;;;;;;;-139.38;100.00;63230.50;5067132;28;20277;-68
2021/06/08 04:39:58;;;;;;;35.13;24.27;;;;;;;-139.38;100.00;63230.50;5069825;28;20230;-68
2021/06/08 04:43:24;;;;;;;36.53;24.50;;;;;;;-139.38;100.00;63230.50;5067863;28;20710;-68
2021/06/08 04:46:51;;;;;;;38.07;25.50;;;;;;;-139.38;100.00;63230.50;5064909;28;20669;-67
2021/06/08 04:50:17;;;;;;;34.57;23.83;;;;;;;-139.38;100.00;63230.50;5069761;28;20225;-68
2021/06/08 04:53:42;;;;;;;37.57;25.07;;;;;;;-139.38;100.00;63230.50;5096790;22;20675;-68
2021/06/08 04:57:10;;;;;;;32.77;22.93;;;;;;;-139.38;100.00;63230.50;5083978;28;20306;-68
2021/06/08 05:00:38;;;;;;;34.33;23.57;;;;;;;-139.38;100.00;63230.50;5084007;28;20204;-69
2021/06/08 05:04:08;;;;;;;34.23;23.73;;;;;;;-139.38;100.00;63230.50;5080093;28;20227;-69
2021/06/08 05:07:36;;;;;;;35.87;24.37;;;;;;;-139.38;100.00;63230.50;5081371;28;20208;-67
2021/06/08 05:11:06;;;;;;;33.20;22.57;;;;;;;-139.38;100.00;63230.50;5085537;28;20259;-68
2021/06/08 05:14:32;;;;;;;33.80;22.57;;;;;;;-139.38;100.00;63230.50;5080346;28;20242;-70
2021/06/08 05:17:58;;;;;;;31.27;22.40;;;;;;;-139.38;100.00;63230.50;5082599;28;20201;-72
2021/06/08 05:21:25;;;;;;;32.23;23.17;;;;;;;-139.38;100.00;63230.50;5080085;28;20568;-73
2021/06/08 05:24:51;;;;;;;33.97;22.50;;;;;;;-139.38;100.00;63230.50;5090253;28;20279;-74
2021/06/08 05:28:18;;;;;;;33.90;23.27;;;;;;;-139.38;100.00;63230.50;5083344;28;20196;-67
2021/06/08 05:31:45;;;;;;;33.87;23.70;;;;;;;-139.38;100.00;63230.50;5090188;28;20267;-69
2021/06/08 05:35:11;;;;;;;34.00;23.50;;;;;;;-139.38;100.00;63230.50;5087999;28;20265;-67
2021/06/08 05:38:40;;;;;;;32.57;22.43;;;;;;;-139.38;100.00;63230.50;5082754;28;20212;-67
2021/06/08 05:42:06;;;;;;;30.80;21.20;;;;;;;-139.38;100.00;63230.50;5083553;28;20650;-68
2021/06/08 05:45:32;;;;;;;33.57;22.33;;;;;;;-139.38;100.00;63230.50;5081272;28;20208;-69
2021/06/08 05:48:58;;;;;;;29.90;21.60;;;;;;;-139.38;100.00;63230.50;5085440;28;20619;-69
2021/06/08 05:52:23;;;;;;;32.07;23.40;;;;;;;-139.38;100.00;63230.50;5084893;28;20200;-67
2021/06/08 05:55:51;;;;;;;35.17;24.40;;;;;;;-139.38;100.00;63230.50;5080149;28;20220;-67
2021/06/08 05:59:21;;;;;;;35.60;22.37;;;;;;;-139.38;100.00;63230.50;5091742;28;20230;-67
2021/06/08 06:02:47;;;;;;;34.60;23.47;;;;;;;-139.38;100.00;63230.50;5084758;28;20781;-70
2021/06/08 06:06:13;;;;;;;31.73;22.07;;;;;;;-139.38;100.00;63230.50;5082199;28;20209;-68
2021/06/08 06:09:38;;;;;;;32.63;22.83;;;;;;;-139.38;100.00;63230.50;5080395;28;20210;-68
2021/06/08 06:13:07;;;;;;;34.27;22.50;;;;;;;-139.38;100.00;63230.50;5088482;28;20204;-68
2021/06/08 06:16:35;;;;;;;29.00;21.13;;;;;;;-139.38;100.00;63230.50;5086549;28;20212;-66
2021/06/08 06:20:00;;;;;;;34.13;23.40;;;;;;;-139.38;100.00;63230.50;5087041;28;20192;-68
2021/06/08 06:23:26;;;;;;;32.67;23.27;;;;;;;-139.38;100.00;63230.50;5084195;28;20221;-67
2021/06/08 06:26:52;;;;;;;29.20;21.13;;;;;;;-139.38;100.00;63230.50;5081027;28;20201;-67
2021/06/08 06:30:19;;;;;;;29.10;21.23;;;;;;;-139.38;100.00;63230.50;5091328;28;20221;-69
2021/06/08 06:33:50;;;;;;;31.43;21.90;;;;;;;-139.38;100.00;63230.50;5083186;28;20701;-71
2021/06/08 06:37:16;;;;;;;35.70;23.10;;;;;;;-139.38;100.00;63230.50;5091516;28;20223;-68
2021/06/08 06:40:42;;;;;;;31.67;22.57;;;;;;;-139.38;100.00;63230.50;5079154;28;20208;-68
2021/06/08 06:44:13;;;;;;;29.10;21.43;;;;;;;-139.38;100.00;63230.50;5085713;28;20275;-68
2021/06/08 06:47:41;;;;;;;32.77;22.60;;;;;;;-139.38;100.00;63230.50;5081289;28;20212;-68
2021/06/08 06:51:07;;;;;;;33.20;21.00;;;;;;;-139.38;100.00;63230.50;5083824;28;20277;-68
2021/06/08 06:54:32;;;;;;;30.20;21.63;;;;;;;-139.38;100.00;63230.50;5083663;28;20228;-68
2021/06/08 06:57:59;;;;;;;31.67;21.33;;;;;;;-139.38;100.00;63230.50;5081406;28;20810;-68
2021/06/08 07:01:25;;;;;;;29.10;21.13;;;;;;;-139.38;100.00;63230.50;5084051;28;20192;-68
2021/06/08 07:04:53;;;;;;;32.40;21.13;;;;;;;-139.38;100.00;63230.50;5086142;28;20615;-68
2021/06/08 07:08:21;;;;;;;28.93;20.87;;;;;;;-139.38;100.00;63230.50;5082846;28;20623;-67
2021/06/08 07:11:46;;;;;;;28.07;20.50;;;;;;;-139.38;100.00;63230.50;5087756;28;20280;-68
2021/06/08 07:15:13;;;;;;;31.63;22.10;;;;;;;-139.38;100.00;63230.50;5085791;28;20231;-68
2021/06/08 07:18:38;;;;;;;31.80;21.70;;;;;;;-139.38;100.00;63230.50;5082060;28;20201;-68
2021/06/08 07:22:06;;;;;;;28.53;20.07;;;;;;;-139.38;100.00;63230.50;5090935;28;20763;-76
2021/06/08 07:25:36;;;;;;;25.00;19.10;;;;;;;-139.38;100.00;63230.50;5086982;28;20200;-68
2021/06/08 07:29:02;;;;;;;26.67;19.10;;;;;;;-139.38;100.00;63230.50;5079416;28;20204;-67
2021/06/08 07:32:36;;;;;;;27.73;19.97;;;;;;;-139.38;100.00;63230.50;5080588;28;20288;-67
2021/06/08 07:36:03;;;;;;;29.20;19.37;;;;;;;-139.38;100.00;63230.50;5081062;28;20629;-68
2021/06/08 07:39:36;;;;;;;29.47;20.07;;;;;;;-139.38;100.00;63230.50;5084203;28;20737;-68
2021/06/08 07:43:05;;;;;;;29.43;19.50;;;;;;;-139.38;100.00;63230.50;5089924;28;20207;-68
2021/06/08 07:46:33;;;;;;;25.90;19.10;;;;;;;-139.38;100.00;63230.50;5086730;28;20200;-66
2021/06/08 07:49:59;;;;;;;27.37;18.90;;;;;;;-139.38;100.00;63230.50;5085281;28;20564;-66
2021/06/08 07:53:30;;;;;;;29.97;20.40;;;;;;;-139.38;100.00;63230.50;5087364;28;20800;-68
2021/06/08 07:56:57;;;;;;;26.80;19.67;;;;;;;-139.38;100.00;63230.50;5081699;28;20617;-68
2021/06/08 08:00:23;;;;;;;26.90;19.93;;;;;;;-139.38;100.00;63230.50;5081248;28;20204;-68
2021/06/08 08:03:51;;;;;;;25.70;18.93;;;;;;;-139.38;100.00;63230.50;5077074;28;20226;-68
2021/06/08 08:07:19;;;;;;;32.13;20.23;;;;;;;-139.38;100.00;63230.50;5075662;28;20219;-68
2021/06/08 08:10:44;;;;;;;30.93;20.37;;;;;;;-139.38;100.00;63230.50;5083720;28;20287;-68
2021/06/08 08:14:12;;;;;;;32.20;21.07;;;;;;;-139.38;100.00;63230.50;5082443;28;20314;-68
2021/06/08 08:17:39;;;;;;;30.57;21.23;;;;;;;-139.38;100.00;63230.50;5079068;28;20214;-68
2021/06/08 08:21:07;;;;;;;32.53;21.73;;;;;;;-139.38;100.00;63230.50;5079482;28;20280;-68
2021/06/08 08:24:32;;;;;;;29.20;21.30;;;;;;;-139.38;100.00;63230.50;5079584;28;20220;-68
2021/06/08 08:27:57;;;;;;;31.13;21.07;;;;;;;-139.38;100.00;63230.50;5081040;28;20208;-68
2021/06/08 08:31:27;;;;;;;29.73;21.20;;;;;;;-139.38;100.00;63230.50;5071869;28;20692;-68
2021/06/08 08:34:52;;;;;;;30.27;22.07;;;;;;;-139.38;100.00;63230.50;5083268;28;20239;-68
2021/06/08 08:38:18;;;;;;;29.57;20.47;;;;;;;-139.38;100.00;63230.50;5074425;28;20289;-68
2021/06/08 08:41:44;;;;;;;29.17;20.73;;;;;;;-139.38;100.00;63230.50;5087721;28;20196;-68
2021/06/08 08:45:10;;;;;;;31.20;22.20;;;;;;;-139.38;100.00;63230.50;5081226;28;20236;-68
2021/06/08 08:48:38;;;;;;;31.80;21.43;;;;;;;-139.38;100.00;63230.50;5083738;28;20342;-68
2021/06/08 08:52:04;;;;;;;31.80;21.40;;;;;;;-139.38;100.00;63230.50;5082906;28;20220;-68
2021/06/08 08:55:30;;;;;;;29.63;20.67;;;;;;;-139.38;100.00;63230.50;5085812;28;20201;-68
2021/06/08 08:59:01;;;;;;;29.23;21.97;;;;;;;-139.38;100.00;63230.50;5087721;28;20196;-68
2021/06/08 09:02:26;;;;;;;27.27;20.70;;;;;;;-139.38;100.00;63230.50;5086117;28;20193;-68
2021/06/08 09:05:55;;;;;;;27.33;20.43;;;;;;;-139.38;100.00;63230.50;5080559;28;20264;-67
2021/06/08 09:09:21;;;;;;;30.20;20.90;;;;;;;-139.38;100.00;63230.50;5080339;28;20204;-67
2021/06/08 09:12:46;;;;;;;28.93;21.50;;;;;;;-139.38;100.00;63230.50;5089180;28;20216;-66
2021/06/08 09:16:12;;;;;;;29.30;21.43;;;;;;;-139.38;100.00;63230.50;5077993;28;20250;-67
2021/06/08 09:19:38;;;;;;;31.57;21.97;;;;;;;-139.38;100.00;63230.50;5075256;28;20213;-66
2021/06/08 09:23:05;;;;;;;23.83;18.73;;;;;;;-139.38;100.00;63230.50;5084009;28;20205;-66
2021/06/08 09:26:49;;;;;;;27.10;21.10;;;;;;;-139.38;100.00;63230.50;5080490;28;20667;-66
2021/06/08 09:30:25;;;;;;;25.50;21.07;;;;;;;-139.38;100.00;63230.50;5085054;28;20205;-68
2021/06/08 09:33:52;;;;;;;27.20;20.50;;;;;;;-139.38;100.00;63230.50;5081751;28;20224;-68
2021/06/08 09:37:32;;;;;;;28.43;20.37;;;;;;;-139.38;100.00;63230.50;5083790;28;20209;-67
2021/06/08 09:40:58;;;;;;;30.57;19.37;;;;;;;-139.38;100.00;63230.50;5080760;28;20227;-70
2021/06/08 09:44:23;;;;;;;27.10;21.33;;;;;;;-139.38;100.00;63230.50;5081208;28;20222;-69
2021/06/08 09:47:56;;;;;;;24.63;19.03;;;;;;;-139.38;100.00;63230.50;5079881;28;20217;-68
2021/06/08 09:51:44;;;;;;;26.25;18.30;;;;;;;-139.38;100.00;63230.50;5079656;28;20209;-67
2021/06/08 09:55:22;;;;;;;27.10;19.65;;;;;;;-139.38;100.00;63230.50;5076068;28;20250;-71
2021/06/08 09:58:48;;;;;;;22.30;17.30;;;;;;;-139.38;100.00;63230.50;5080330;28;20212;-68
2021/06/08 10:02:25;;;;;;;24.92;18.15;;;;;;;-139.38;100.00;63230.50;5082188;28;20286;-69
2021/06/08 10:05:51;;;;;;;21.80;18.10;;;;;;;-139.38;100.00;63230.50;5082691;28;20200;-68
2021/06/08 10:09:18;;;;;;;22.02;18.20;;;;;;;-139.38;100.00;63230.50;5088100;28;20209;-68
2021/06/08 10:12:54;;;;;;;22.42;18.25;;;;;;;-139.38;100.00;63230.50;5087421;28;20252;-67
2021/06/08 10:16:23;;;;;;;23.20;18.63;;;;;;;-139.38;100.00;63230.50;5083519;28;20212;-67
2021/06/08 10:19:49;;;;;;;25.63;19.45;;;;;;;-139.38;100.00;63230.50;5089036;28;20575;-67
2021/06/08 10:23:28;;;;;;;23.23;19.60;;;;;;;-139.38;100.00;63230.50;5088873;28;20712;-67
2021/06/08 10:26:56;;;;;;;23.05;18.75;;;;;;;-139.38;100.00;63230.50;5082782;28;20200;-68
2021/06/08 10:30:23;;;;;;;21.48;17.63;;;;;;;-139.38;100.00;63230.50;5076087;28;20207;-67
2021/06/08 10:33:48;;;;;;;23.85;19.35;;;;;;;-139.38;100.00;63230.50;5092597;28;20220;-67
2021/06/08 10:37:14;;;;;;;23.10;17.40;;;;;;;-139.38;100.00;63230.50;5091919;28;20208;-70
2021/06/08 10:40:40;;;;;;;23.75;18.05;;;;;;;-139.38;100.00;63230.50;5079368;28;20209;-69
2021/06/08 10:44:17;;;;;;;22.77;19.35;;;;;;;-139.38;100.00;63230.50;5081400;28;20238;-70
2021/06/08 10:47:51;;;;;;;21.30;17.00;;;;;;;-139.38;100.00;63230.50;5081076;28;20198;-69
2021/06/08 10:51:23;;;;;;;21.17;17.13;;;;;;;-139.38;100.00;63230.50;5091067;28;20208;-70
2021/06/08 10:54:52;;;;;;;22.77;18.00;;;;;;;-139.38;100.00;63230.50;5079923;28;20557;-70
2021/06/08 10:58:20;;;;;;;22.80;18.00;;;;;;;-139.38;100.00;63230.50;5087756;28;20567;-70
2021/06/08 11:01:46;;;;;;;21.92;17.02;;;;;;;-139.38;100.00;63230.50;5082875;28;20200;-71
2021/06/08 11:05:13;;;;;;;21.75;17.00;;;;;;;-139.38;100.00;63230.50;5080657;28;20232;-69
2021/06/08 11:08:58;;;;;;;23.35;17.48;;;;;;;-139.38;100.00;63230.50;5090013;28;20273;-69
2021/06/08 11:12:42;;;;;;;23.10;18.05;;;;;;;-139.38;100.00;63230.50;5083349;28;20224;-69
2021/06/08 11:16:31;;;;;;;22.08;19.35;;;;;;;-139.38;100.00;63230.50;5077290;28;20220;-70
2021/06/08 11:19:58;;;;;;;21.20;17.85;;;;;;;-139.38;100.00;63230.50;5077716;28;20243;-68
2021/06/08 11:23:44;;;;;;;24.60;18.70;;;;;;;-139.38;100.00;63230.50;5084468;28;20223;-68
2021/06/08 11:27:10;;;;;;;22.80;17.95;;;;;;;-139.38;100.00;63230.50;5086878;28;20791;-70
2021/06/08 11:30:57;;;;;;;21.15;17.73;;;;;;;-139.38;100.00;63230.50;5090868;28;20216;-69
2021/06/08 11:34:27;;;;;;;24.20;19.67;;;;;;;-139.38;100.00;63230.50;5086176;28;20229;-69
2021/06/08 11:37:54;;;;;;;22.02;17.92;;;;;;;-139.38;100.00;63230.50;5080804;28;20265;-70
2021/06/08 11:41:56;;;;;;;23.60;18.30;;;;;;;-139.38;100.00;63230.50;5087241;28;20198;-70
2021/06/08 11:45:28;;;;;;;20.60;18.23;;;;;;;-139.38;100.00;63230.50;5083212;28;20223;-70
2021/06/08 11:49:11;;;;;;;23.88;18.48;;;;;;;-139.38;100.00;63230.50;5087251;28;20220;-69
2021/06/08 11:52:38;;;;;;;21.38;17.90;;;;;;;-139.38;100.00;63230.50;5077466;28;20289;-70
2021/06/08 11:56:21;;;;;;;19.10;16.90;;;;;;;-139.38;100.00;63230.50;5083581;28;20209;-68
2021/06/08 11:59:58;;;;;;;19.15;15.70;;;;;;;-139.38;100.00;63230.50;5083373;28;20262;-69
2021/06/08 12:03:34;;;;;;;23.15;17.63;;;;;;;-139.38;100.00;63230.50;5086932;28;20308;-69
2021/06/08 12:07:07;;;;;;;19.23;16.48;;;;;;;-139.38;100.00;63230.50;5081190;28;20201;-69
2021/06/08 12:10:34;;;;;;;22.40;17.30;;;;;;;-139.38;100.00;63230.50;5082737;28;20212;-69
2021/06/08 12:14:06;;;;;;;20.13;17.80;;;;;;;-139.38;100.00;63230.50;5086303;28;20227;-69
2021/06/08 12:17:32;;;;;;;20.25;17.15;;;;;;;-139.38;100.00;63230.50;5085227;28;20419;-69
2021/06/08 12:21:00;;;;;;;20.25;16.90;;;;;;;-139.38;100.00;63230.50;5086467;28;20235;-70
2021/06/08 12:24:26;;;;;;;20.92;18.00;;;;;;;-139.38;100.00;63230.50;5084857;28;20318;-70
2021/06/08 12:27:55;;;;;;;20.35;16.55;;;;;;;-139.38;100.00;63230.50;5087133;28;20592;-70
2021/06/08 12:31:22;;;;;;;21.42;17.92;;;;;;;-139.38;100.00;63230.50;5085207;28;20282;-70
2021/06/08 12:34:49;;;;;;;19.48;16.83;;;;;;;-139.38;100.00;63230.50;5086131;28;20224;-70
2021/06/08 12:38:22;;;;;;;21.30;17.52;;;;;;;-139.38;100.00;63230.50;5086206;28;20250;-70
2021/06/08 12:42:09;;;;;;;18.90;16.20;;;;;;;-139.38;100.00;63230.50;5085239;28;20204;-70
2021/06/08 12:45:34;;;;;;;21.33;16.65;;;;;;;-139.38;100.00;63230.50;5080880;28;20206;-69
2021/06/08 12:49:03;;;;;;;20.80;16.67;;;;;;;-139.38;100.00;63230.50;5088989;28;20197;-70
2021/06/08 12:52:31;;;;;;;22.10;16.10;;;;;;;-139.38;100.00;63230.50;5078944;28;20582;-70
2021/06/08 12:55:56;;;;;;;21.55;16.38;;;;;;;-139.38;100.00;63230.50;5085277;28;20200;-70
2021/06/08 12:59:23;;;;;;;19.27;15.25;;;;;;;-139.38;100.00;63230.50;5090769;28;20811;-70
2021/06/08 13:02:50;;;;;;;19.50;15.23;;;;;;;-139.38;100.00;63230.50;5089040;28;20569;-70
2021/06/08 13:06:18;;;;;;;16.45;14.27;;;;;;;-139.38;100.00;63230.50;5088138;28;20197;-69
2021/06/08 13:09:45;;;;;;;16.52;13.32;;;;;;;-139.38;100.00;63230.50;5086600;28;20215;-69
2021/06/08 13:13:12;;;;;;;16.30;13.95;;;;;;;-139.38;100.00;63230.50;5086901;28;20235;-69
2021/06/08 13:16:39;;;;;;;16.42;14.57;;;;;;;-139.38;100.00;63230.50;5081640;28;20215;-69
2021/06/08 13:20:21;;;;;;;16.00;13.85;;;;;;;-139.38;100.00;63230.50;5073217;28;20215;-69
2021/06/08 13:23:48;;;;;;;17.25;14.95;;;;;;;-139.38;100.00;63230.50;5087110;28;20227;-69
2021/06/08 13:27:21;;;;;;;18.65;15.07;;;;;;;-139.38;100.00;63230.50;5089940;28;20212;-69
2021/06/08 13:30:46;;;;;;;21.00;15.27;;;;;;;-139.38;100.00;63230.50;5071319;28;20224;-69
2021/06/08 13:34:15;;;;;;;15.20;13.55;;;;;;;-139.38;100.00;63230.50;5082765;28;20224;-69
2021/06/08 13:37:43;;;;;;;17.48;13.65;;;;;;;-139.38;100.00;63230.50;5079936;28;20209;-69
2021/06/08 13:41:11;;;;;;;14.20;12.10;;;;;;;-139.38;100.00;63230.50;5084779;28;20205;-69
2021/06/08 13:44:55;;;;;;;16.33;12.77;;;;;;;-139.38;100.00;63230.50;5091978;28;20221;-68
2021/06/08 13:48:29;;;;;;;14.18;12.65;;;;;;;-139.38;100.00;63230.50;5082583;28;21498;-69
2021/06/08 13:52:07;;;;;;;14.50;12.38;;;;;;;-139.38;100.00;63230.50;5090751;28;20270;-68
2021/06/08 13:55:37;;;;;;;15.98;11.98;;;;;;;-139.38;100.00;63230.50;5087984;28;20207;-70
2021/06/08 14:02:51;;;;;;;14.80;12.40;;;;;;;-139.38;100.00;63230.50;5085372;28;20224;-69
2021/06/08 14:06:26;;;;;;;13.15;11.75;;;;;;;-139.38;100.00;63230.50;5080152;28;20608;-69
2021/06/08 14:09:55;;;;;;;14.95;11.82;;;;;;;-139.38;100.00;63230.50;5087531;28;20207;-69
2021/06/08 14:13:25;;;;;;;15.40;11.68;;;;;;;-139.38;100.00;63230.50;5088901;28;20234;-70
2021/06/08 14:16:51;;;;;;;12.45;11.05;;;;;;;-139.38;100.00;63230.50;5078219;28;20259;-69
2021/06/08 14:20:17;;;;;;;14.90;11.45;;;;;;;-139.38;100.00;63230.50;5083680;28;20288;-69
2021/06/08 14:23:42;;;;;;;13.98;11.85;;;;;;;-139.38;100.00;63230.50;5084528;28;20227;-69
2021/06/08 14:27:10;;;;;;;13.07;10.75;;;;;;;-139.38;100.00;63230.50;5083028;28;20200;-70
2021/06/08 14:30:37;;;;;;;12.35;11.15;;;;;;;-139.38;100.00;63230.50;5081612;28;20201;-70
2021/06/08 14:34:03;;;;;;;12.45;11.15;;;;;;;-139.38;100.00;63230.50;5088477;28;20243;-70
2021/06/08 14:37:28;;;;;;;14.40;11.55;;;;;;;-139.38;100.00;63230.50;5075062;28;20216;-71
2021/06/08 14:40:54;;;;;;;14.52;11.85;;;;;;;-139.38;100.00;63230.50;5081426;28;20627;-69
2021/06/08 14:44:19;;;;;;;13.25;11.20;;;;;;;-139.38;100.00;63230.50;5095515;28;20295;-69
2021/06/08 14:47:46;;;;;;;12.77;9.52;;;;;;;-139.38;100.00;63230.50;5086173;28;20209;-70
2021/06/08 14:51:12;;;;;;;14.40;11.77;;;;;;;-139.38;100.00;63230.50;5092256;28;20295;-69
2021/06/08 14:54:37;;;;;;;12.80;10.80;;;;;;;-139.38;100.00;63230.50;5089715;28;20706;-69
2021/06/08 14:58:03;;;;;;;11.77;9.38;;;;;;;-139.38;100.00;63230.50;5080473;28;20198;-69
2021/06/08 15:01:28;;;;;;;11.82;10.70;;;;;;;-139.38;100.00;63230.50;5090777;28;20288;-69
2021/06/08 15:04:55;;;;;;;12.00;10.30;;;;;;;-139.38;100.00;63230.50;5081224;28;20216;-71
2021/06/08 15:08:20;;;;;;;11.73;10.40;;;;;;;-139.38;100.00;63230.50;5078451;28;20202;-68
2021/06/08 15:11:46;;;;;;;12.93;10.82;;;;;;;-139.38;100.00;63230.50;5074321;28;20673;-69
2021/06/08 15:15:11;;;;;;;12.05;10.77;;;29.00;1.00;;;-139.38;100.00;63230.50;5080419;28;20258;-70
2021/06/08 15:18:36;;;;;;;11.32;10.23;;;29.00;1.00;;;-139.38;100.00;63230.50;5084094;28;20220;-71
2021/06/08 15:22:06;;;;;;;11.32;10.23;;;28.40;1.00;;;-139.38;100.00;63230.50;5085702;28;20200;-70
2021/06/08 15:25:31;;;;;;;11.75;10.55;;;28.70;1.00;;;-139.38;100.00;63230.50;5082984;28;20274;-70